sensor_id;sensor_type;location;lat;lon;timestamp;pressure;altitude;pressure_sealevel;temperature;humidity
15405;BME280;7801;48.124;11.590;2023-09-12T00:00:54;95202.44;;;21.19;85.27
15405;BME280;7801;48.124;11.590;2023-09-12T00:03:21;95205.81;;;21.12;85.03
15405;BME280;7801;48.124;11.590;2023-09-12T00:05:52;95207.97;;;21.03;85.63
15405;BME280;7801;48.124;11.590;2023-09-12T00:08:18;95210.38;;;21.08;84.32
15405;BME280;7801;48.124;11.590;2023-09-12T00:10:43;95208.22;;;21.17;84.52
15405;BME280;7801;48.124;11.590;2023-09-12T00:13:08;95193.34;;;21.04;84.85
15405;BME280;7801;48.124;11.590;2023-09-12T00:15:34;95203.31;;;21.00;84.51
15405;BME280;7801;48.124;11.590;2023-09-12T00:17:59;95200.31;;;21.05;84.22
15405;BME280;7801;48.124;11.590;2023-09-12T00:20:24;95198.44;;;21.09;83.95
15405;BME280;7801;48.124;11.590;2023-09-12T00:22:50;95194.19;;;21.08;84.08
15405;BME280;7801;48.124;11.590;2023-09-12T00:25:16;95194.19;;;21.08;84.21
15405;BME280;7801;48.124;11.590;2023-09-12T00:27:41;95187.53;;;21.02;83.89
15405;BME280;7801;48.124;11.590;2023-09-12T00:30:07;95195.31;;;21.07;83.84
15405;BME280;7801;48.124;11.590;2023-09-12T00:32:32;95189.09;;;21.03;83.81
15405;BME280;7801;48.124;11.590;2023-09-12T00:34:57;95187.91;;;21.01;83.53
15405;BME280;7801;48.124;11.590;2023-09-12T00:37:23;95192.06;;;20.95;84.02
15405;BME280;7801;48.124;11.590;2023-09-12T00:39:48;95179.41;;;20.99;83.95
15405;BME280;7801;48.124;11.590;2023-09-12T00:42:13;95184.41;;;21.00;84.43
15405;BME280;7801;48.124;11.590;2023-09-12T00:44:39;95182.06;;;20.95;84.41
15405;BME280;7801;48.124;11.590;2023-09-12T00:47:04;95180.50;;;20.94;84.09
15405;BME280;7801;48.124;11.590;2023-09-12T00:49:30;95174.56;;;20.85;84.22
15405;BME280;7801;48.124;11.590;2023-09-12T00:51:57;95175.41;;;20.89;84.27
15405;BME280;7801;48.124;11.590;2023-09-12T00:54:23;95173.06;;;20.87;84.20
15405;BME280;7801;48.124;11.590;2023-09-12T00:56:49;95166.94;;;20.90;83.72
15405;BME280;7801;48.124;11.590;2023-09-12T00:59:17;95167.38;;;20.92;83.62
15405;BME280;7801;48.124;11.590;2023-09-12T01:01:43;95169.28;;;20.92;83.94
15405;BME280;7801;48.124;11.590;2023-09-12T01:04:09;95165.81;;;20.91;84.18
15405;BME280;7801;48.124;11.590;2023-09-12T01:06:35;95165.44;;;20.93;83.97
15405;BME280;7801;48.124;11.590;2023-09-12T01:09:00;95166.91;;;20.87;84.10
15405;BME280;7801;48.124;11.590;2023-09-12T01:11:26;95160.87;;;20.71;84.12
15405;BME280;7801;48.124;11.590;2023-09-12T01:13:52;95158.91;;;20.68;84.12
15405;BME280;7801;48.124;11.590;2023-09-12T01:16:17;95164.41;;;20.75;84.68
15405;BME280;7801;48.124;11.590;2023-09-12T01:18:42;95164.22;;;20.64;84.45
15405;BME280;7801;48.124;11.590;2023-09-12T01:21:37;95158.12;;;20.67;84.83
15405;BME280;7801;48.124;11.590;2023-09-12T01:27:56;95160.31;;;20.62;85.13
15405;BME280;7801;48.124;11.590;2023-09-12T01:29:57;95167.63;;;20.61;84.64
15405;BME280;7801;48.124;11.590;2023-09-12T01:32:26;95169.56;;;20.61;84.79
15405;BME280;7801;48.124;11.590;2023-09-12T01:34:51;95170.53;;;20.49;84.88
15405;BME280;7801;48.124;11.590;2023-09-12T01:37:17;95164.28;;;20.45;85.65
15405;BME280;7801;48.124;11.590;2023-09-12T01:39:42;95156.09;;;20.38;86.66
15405;BME280;7801;48.124;11.590;2023-09-12T01:42:13;95167.50;;;20.31;86.35
15405;BME280;7801;48.124;11.590;2023-09-12T01:44:41;95163.38;;;20.37;85.60
15405;BME280;7801;48.124;11.590;2023-09-12T01:47:08;95162.78;;;20.24;85.95
15405;BME280;7801;48.124;11.590;2023-09-12T01:49:35;95164.47;;;20.33;85.13
15405;BME280;7801;48.124;11.590;2023-09-12T01:52:02;95172.91;;;20.31;86.15
15405;BME280;7801;48.124;11.590;2023-09-12T01:54:28;95168.81;;;20.18;85.51
15405;BME280;7801;48.124;11.590;2023-09-12T01:56:55;95168.44;;;20.19;86.06
15405;BME280;7801;48.124;11.590;2023-09-12T01:59:23;95173.31;;;20.33;86.29
15405;BME280;7801;48.124;11.590;2023-09-12T02:01:49;95175.72;;;20.15;86.20
15405;BME280;7801;48.124;11.590;2023-09-12T02:04:14;95182.97;;;20.34;85.76
15405;BME280;7801;48.124;11.590;2023-09-12T02:06:39;95184.22;;;20.40;85.19
15405;BME280;7801;48.124;11.590;2023-09-12T02:09:04;95178.56;;;20.26;85.39
15405;BME280;7801;48.124;11.590;2023-09-12T02:11:30;95181.81;;;20.12;85.79
15405;BME280;7801;48.124;11.590;2023-09-12T02:13:55;95192.19;;;20.33;85.27
15405;BME280;7801;48.124;11.590;2023-09-12T02:16:20;95180.88;;;20.05;84.96
15405;BME280;7801;48.124;11.590;2023-09-12T02:18:46;95190.56;;;20.29;85.61
15405;BME280;7801;48.124;11.590;2023-09-12T02:21:11;95194.06;;;20.10;85.58
15405;BME280;7801;48.124;11.590;2023-09-12T02:23:37;95183.16;;;20.03;86.91
15405;BME280;7801;48.124;11.590;2023-09-12T02:26:02;95184.66;;;20.00;85.27
15405;BME280;7801;48.124;11.590;2023-09-12T02:28:27;95189.53;;;20.14;86.37
15405;BME280;7801;48.124;11.590;2023-09-12T02:30:53;95187.62;;;20.14;85.46
15405;BME280;7801;48.124;11.590;2023-09-12T02:33:18;95193.22;;;20.06;86.40
15405;BME280;7801;48.124;11.590;2023-09-12T02:35:43;95188.09;;;20.20;85.50
15405;BME280;7801;48.124;11.590;2023-09-12T02:38:09;95188.78;;;20.17;85.17
15405;BME280;7801;48.124;11.590;2023-09-12T02:40:34;95192.72;;;20.00;85.71
15405;BME280;7801;48.124;11.590;2023-09-12T02:42:59;95194.59;;;20.19;85.93
15405;BME280;7801;48.124;11.590;2023-09-12T02:45:25;95192.59;;;20.12;85.89
15405;BME280;7801;48.124;11.590;2023-09-12T02:47:50;95193.78;;;20.15;86.04
15405;BME280;7801;48.124;11.590;2023-09-12T02:50:16;95190.94;;;20.08;86.38
15405;BME280;7801;48.124;11.590;2023-09-12T02:52:42;95195.34;;;19.97;85.37
15405;BME280;7801;48.124;11.590;2023-09-12T02:55:07;95191.09;;;20.15;85.80
15405;BME280;7801;48.124;11.590;2023-09-12T02:57:32;95193.38;;;20.13;86.22
15405;BME280;7801;48.124;11.590;2023-09-12T02:59:59;95193.78;;;20.15;86.04
15405;BME280;7801;48.124;11.590;2023-09-12T03:02:28;95189.03;;;20.08;86.11
15405;BME280;7801;48.124;11.590;2023-09-12T03:04:54;95195.50;;;20.04;86.31
15405;BME280;7801;48.124;11.590;2023-09-12T03:07:21;95187.62;;;20.14;86.55
15405;BME280;7801;48.124;11.590;2023-09-12T03:09:49;95190.72;;;20.16;86.13
15405;BME280;7801;48.124;11.590;2023-09-12T03:12:15;95185.81;;;20.22;86.00
15405;BME280;7801;48.124;11.590;2023-09-12T03:14:40;95184.06;;;20.10;86.14
15405;BME280;7801;48.124;11.590;2023-09-12T03:17:05;95192.16;;;20.10;86.11
15405;BME280;7801;48.124;11.590;2023-09-12T03:19:31;95187.84;;;20.06;86.09
15405;BME280;7801;48.124;11.590;2023-09-12T03:21:56;95186.69;;;20.07;86.34
15405;BME280;7801;48.124;11.590;2023-09-12T03:24:22;95188.53;;;20.03;86.36
15405;BME280;7801;48.124;11.590;2023-09-12T03:26:49;95191.47;;;19.94;86.89
15405;BME280;7801;48.124;11.590;2023-09-12T03:29:15;95184.00;;;20.07;86.45
15405;BME280;7801;48.124;11.590;2023-09-12T03:31:40;95181.38;;;20.10;86.47
15405;BME280;7801;48.124;11.590;2023-09-12T03:34:07;95186.00;;;20.10;86.33
15405;BME280;7801;48.124;11.590;2023-09-12T03:36:32;95189.69;;;19.82;86.78
15405;BME280;7801;48.124;11.590;2023-09-12T03:38:57;95196.72;;;19.87;87.45
15405;BME280;7801;48.124;11.590;2023-09-12T03:41:23;95180.75;;;19.98;86.70
15405;BME280;7801;48.124;11.590;2023-09-12T03:43:52;95176.87;;;19.95;87.32
15405;BME280;7801;48.124;11.590;2023-09-12T03:46:18;95192.25;;;19.95;86.25
15405;BME280;7801;48.124;11.590;2023-09-12T03:48:43;95183.75;;;19.93;87.23
15405;BME280;7801;48.124;11.590;2023-09-12T03:51:09;95189.41;;;19.87;87.13
15405;BME280;7801;48.124;11.590;2023-09-12T03:53:34;95191.53;;;19.98;87.08
15405;BME280;7801;48.124;11.590;2023-09-12T03:56:00;95185.00;;;19.99;87.36
15405;BME280;7801;48.124;11.590;2023-09-12T03:58:26;95184.56;;;19.97;86.62
15405;BME280;7801;48.124;11.590;2023-09-12T04:00:51;95186.00;;;19.90;86.85
15405;BME280;7801;48.124;11.590;2023-09-12T04:03:16;95192.88;;;19.88;86.81
15405;BME280;7801;48.124;11.590;2023-09-12T04:05:42;95182.19;;;19.92;87.06
15405;BME280;7801;48.124;11.590;2023-09-12T04:08:07;95191.19;;;19.80;87.40
15405;BME280;7801;48.124;11.590;2023-09-12T04:10:32;95193.03;;;19.76;87.37
15405;BME280;7801;48.124;11.590;2023-09-12T04:12:58;95192.25;;;19.75;88.06
15405;BME280;7801;48.124;11.590;2023-09-12T04:15:23;95188.41;;;19.76;86.61
15405;BME280;7801;48.124;11.590;2023-09-12T04:17:49;95185.72;;;19.76;87.08
15405;BME280;7801;48.124;11.590;2023-09-12T04:20:14;95187.34;;;19.81;87.37
15405;BME280;7801;48.124;11.590;2023-09-12T04:22:41;95191.25;;;19.83;87.22
15405;BME280;7801;48.124;11.590;2023-09-12T04:25:06;95195.84;;;19.83;87.53
15405;BME280;7801;48.124;11.590;2023-09-12T04:27:32;95191.97;;;19.80;87.27
15405;BME280;7801;48.124;11.590;2023-09-12T04:29:57;95201.75;;;19.88;86.80
15405;BME280;7801;48.124;11.590;2023-09-12T04:32:22;95203.31;;;19.70;87.14
15405;BME280;7801;48.124;11.590;2023-09-12T04:34:49;95198.63;;;19.67;87.85
15405;BME280;7801;48.124;11.590;2023-09-12T04:37:14;95203.00;;;19.75;87.45
15405;BME280;7801;48.124;11.590;2023-09-12T04:39:40;95200.13;;;19.84;86.43
15405;BME280;7801;48.124;11.590;2023-09-12T04:42:05;95196.63;;;19.83;87.35
15405;BME280;7801;48.124;11.590;2023-09-12T04:44:35;95195.16;;;19.86;87.31
15405;BME280;7801;48.124;11.590;2023-09-12T04:47:00;95194.09;;;19.90;86.90
15405;BME280;7801;48.124;11.590;2023-09-12T04:49:27;95202.09;;;19.87;86.75
15405;BME280;7801;48.124;11.590;2023-09-12T04:51:52;95192.03;;;19.84;86.29
15405;BME280;7801;48.124;11.590;2023-09-12T04:54:17;95194.81;;;19.68;87.02
15405;BME280;7801;48.124;11.590;2023-09-12T04:56:43;95193.44;;;19.78;87.11
15405;BME280;7801;48.124;11.590;2023-09-12T04:59:08;95195.78;;;19.79;87.56
15405;BME280;7801;48.124;11.590;2023-09-12T05:01:33;95198.81;;;19.59;88.31
15405;BME280;7801;48.124;11.590;2023-09-12T05:03:58;95193.09;;;19.60;88.30
15405;BME280;7801;48.124;11.590;2023-09-12T05:06:25;95202.03;;;19.64;87.32
15405;BME280;7801;48.124;11.590;2023-09-12T05:08:50;95207.13;;;19.69;87.77
15405;BME280;7801;48.124;11.590;2023-09-12T05:11:17;95211.03;;;19.72;87.28
15405;BME280;7801;48.124;11.590;2023-09-12T05:13:42;95208.34;;;19.72;87.47
15405;BME280;7801;48.124;11.590;2023-09-12T05:16:07;95200.75;;;19.77;87.19
15405;BME280;7801;48.124;11.590;2023-09-12T05:18:33;95203.00;;;19.75;86.86
15405;BME280;7801;48.124;11.590;2023-09-12T05:20:58;95205.78;;;19.79;86.51
15405;BME280;7801;48.124;11.590;2023-09-12T05:23:23;95209.94;;;19.76;86.43
15405;BME280;7801;48.124;11.590;2023-09-12T05:25:49;95212.44;;;19.66;87.08
15405;BME280;7801;48.124;11.590;2023-09-12T05:28:14;95215.47;;;19.64;86.86
15405;BME280;7801;48.124;11.590;2023-09-12T05:30:42;95209.59;;;19.78;86.16
15405;BME280;7801;48.124;11.590;2023-09-12T05:33:07;95218.75;;;19.73;86.55
15405;BME280;7801;48.124;11.590;2023-09-12T05:35:33;95214.78;;;19.67;87.08
15405;BME280;7801;48.124;11.590;2023-09-12T05:37:58;95214.97;;;19.59;87.47
15405;BME280;7801;48.124;11.590;2023-09-12T05:40:23;95222.78;;;19.64;87.95
15405;BME280;7801;48.124;11.590;2023-09-12T05:42:49;95210.19;;;19.68;87.06
15405;BME280;7801;48.124;11.590;2023-09-12T05:45:14;95211.81;;;19.72;87.32
15405;BME280;7801;48.124;11.590;2023-09-12T05:47:39;95219.03;;;19.87;86.57
15405;BME280;7801;48.124;11.590;2023-09-12T05:50:05;95215.22;;;19.88;86.76
15405;BME280;7801;48.124;11.590;2023-09-12T05:52:32;95221.50;;;19.96;86.19
15405;BME280;7801;48.124;11.590;2023-09-12T05:54:57;95225.47;;;20.02;86.00
15405;BME280;7801;48.124;11.590;2023-09-12T05:57:23;95226.19;;;19.99;85.98
15405;BME280;7801;48.124;11.590;2023-09-12T05:59:49;95225.34;;;19.95;84.85
15405;BME280;7801;48.124;11.590;2023-09-12T06:02:15;95233.03;;;19.97;85.99
15405;BME280;7801;48.124;11.590;2023-09-12T06:04:40;95230.84;;;20.02;86.18
15405;BME280;7801;48.124;11.590;2023-09-12T06:07:06;95231.50;;;19.96;86.42
15405;BME280;7801;48.124;11.590;2023-09-12T06:09:31;95224.56;;;19.95;86.16
15405;BME280;7801;48.124;11.590;2023-09-12T06:11:56;95232.34;;;20.00;86.09
15405;BME280;7801;48.124;11.590;2023-09-12T06:14:22;95227.97;;;19.92;86.09
15405;BME280;7801;48.124;11.590;2023-09-12T06:16:47;95231.78;;;19.90;86.07
15405;BME280;7801;48.124;11.590;2023-09-12T06:19:13;95230.88;;;19.83;85.64
15405;BME280;7801;48.124;11.590;2023-09-12T06:21:40;95235.91;;;19.84;86.05
15405;BME280;7801;48.124;11.590;2023-09-12T06:24:16;95234.75;;;19.85;85.12
15405;BME280;7801;48.124;11.590;2023-09-12T06:26:42;95240.50;;;19.84;85.87
15405;BME280;7801;48.124;11.590;2023-09-12T06:29:08;95237.53;;;19.89;85.36
15405;BME280;7801;48.124;11.590;2023-09-12T06:31:34;95233.00;;;19.93;85.83
15405;BME280;7801;48.124;11.590;2023-09-12T06:34:00;95240.16;;;20.05;85.24
15405;BME280;7801;48.124;11.590;2023-09-12T06:36:28;95235.81;;;20.00;85.17
15405;BME280;7801;48.124;11.590;2023-09-12T06:38:55;95239.28;;;20.01;86.10
15405;BME280;7801;48.124;11.590;2023-09-12T06:41:21;95240.16;;;20.05;85.14
15405;BME280;7801;48.124;11.590;2023-09-12T06:43:46;95239.88;;;20.10;85.35
15405;BME280;7801;48.124;11.590;2023-09-12T06:46:11;95233.34;;;20.11;85.65
15405;BME280;7801;48.124;11.590;2023-09-12T06:48:37;95236.47;;;20.13;86.30
15405;BME280;7801;48.124;11.590;2023-09-12T06:51:08;95237.25;;;20.13;85.38
15405;BME280;7801;48.124;11.590;2023-09-12T06:53:34;95247.34;;;20.20;85.27
15405;BME280;7801;48.124;11.590;2023-09-12T06:55:59;95238.28;;;20.28;85.21
15405;BME280;7801;48.124;11.590;2023-09-12T06:58:25;95237.56;;;20.31;84.81
15405;BME280;7801;48.124;11.590;2023-09-12T07:00:51;95244.53;;;20.32;84.76
15405;BME280;7801;48.124;11.590;2023-09-12T07:03:16;95236.50;;;20.36;85.11
15405;BME280;7801;48.124;11.590;2023-09-12T07:05:42;95243.53;;;20.40;84.57
15405;BME280;7801;48.124;11.590;2023-09-12T07:08:07;95249.34;;;20.42;84.35
15405;BME280;7801;48.124;11.590;2023-09-12T07:10:33;95242.53;;;20.48;83.87
15405;BME280;7801;48.124;11.590;2023-09-12T07:12:59;95242.69;;;20.59;83.90
15405;BME280;7801;48.124;11.590;2023-09-12T07:15:24;95252.06;;;20.65;83.47
15405;BME280;7801;48.124;11.590;2023-09-12T07:17:49;95250.56;;;20.68;83.15
15405;BME280;7801;48.124;11.590;2023-09-12T07:20:15;95250.63;;;20.71;83.60
15405;BME280;7801;48.124;11.590;2023-09-12T07:22:43;95255.72;;;20.76;83.86
15405;BME280;7801;48.124;11.590;2023-09-12T07:25:09;95258.84;;;20.78;83.99
15405;BME280;7801;48.124;11.590;2023-09-12T07:27:36;95258.47;;;20.80;83.66
15405;BME280;7801;48.124;11.590;2023-09-12T07:30:07;95255.47;;;20.85;83.10
15405;BME280;7801;48.124;11.590;2023-09-12T07:32:33;95264.84;;;20.91;82.82
15405;BME280;7801;48.124;11.590;2023-09-12T07:34:58;95255.66;;;20.96;82.71
15405;BME280;7801;48.124;11.590;2023-09-12T07:37:23;95254.94;;;20.99;82.43
15405;BME280;7801;48.124;11.590;2023-09-12T07:39:50;95257.31;;;21.04;82.44
15405;BME280;7801;48.124;11.590;2023-09-12T07:42:15;95254.69;;;21.07;82.62
15405;BME280;7801;48.124;11.590;2023-09-12T07:44:41;95256.34;;;21.15;81.92
15405;BME280;7801;48.124;11.590;2023-09-12T07:47:07;95247.53;;;21.18;81.67
15405;BME280;7801;48.124;11.590;2023-09-12T07:49:32;95253.06;;;21.25;81.56
15405;BME280;7801;48.124;11.590;2023-09-12T07:51:57;95251.13;;;21.26;81.48
15405;BME280;7801;48.124;11.590;2023-09-12T07:54:23;95264.03;;;21.36;80.90
15405;BME280;7801;48.124;11.590;2023-09-12T07:56:48;95263.34;;;21.43;80.73
15405;BME280;7801;48.124;11.590;2023-09-12T07:59:13;95262.25;;;21.47;80.71
15405;BME280;7801;48.124;11.590;2023-09-12T08:01:40;95261.16;;;21.52;80.48
15405;BME280;7801;48.124;11.590;2023-09-12T08:04:05;95262.78;;;21.56;80.43
15405;BME280;7801;48.124;11.590;2023-09-12T08:06:30;95262.06;;;21.63;80.21
15405;BME280;7801;48.124;11.590;2023-09-12T08:08:57;95265.91;;;21.62;80.29
15405;BME280;7801;48.124;11.590;2023-09-12T08:11:23;95262.91;;;21.67;79.97
15405;BME280;7801;48.124;11.590;2023-09-12T08:13:49;95271.84;;;21.71;79.68
15405;BME280;7801;48.124;11.590;2023-09-12T08:16:15;95264.56;;;21.75;79.64
15405;BME280;7801;48.124;11.590;2023-09-12T08:18:40;95263.13;;;21.81;79.67
15405;BME280;7801;48.124;11.590;2023-09-12T08:21:05;95263.91;;;21.85;79.46
15405;BME280;7801;48.124;11.590;2023-09-12T08:23:31;95266.31;;;21.90;79.44
15405;BME280;7801;48.124;11.590;2023-09-12T08:25:56;95265.56;;;21.93;79.38
15405;BME280;7801;48.124;11.590;2023-09-12T08:28:21;95259.84;;;21.99;79.21
15405;BME280;7801;48.124;11.590;2023-09-12T08:30:47;95260.28;;;22.01;79.36
15405;BME280;7801;48.124;11.590;2023-09-12T08:33:12;95263.78;;;22.01;79.29
15405;BME280;7801;48.124;11.590;2023-09-12T08:35:38;95262.34;;;22.11;78.49
15405;BME280;7801;48.124;11.590;2023-09-12T08:38:04;95259.78;;;22.25;77.62
15405;BME280;7801;48.124;11.590;2023-09-12T08:40:30;95259.87;;;22.32;76.99
15405;BME280;7801;48.124;11.590;2023-09-12T08:42:57;95263.81;;;22.38;77.14
15405;BME280;7801;48.124;11.590;2023-09-12T08:45:23;95264.66;;;22.46;76.65
15405;BME280;7801;48.124;11.590;2023-09-12T08:47:50;95258.16;;;22.54;76.58
15405;BME280;7801;48.124;11.590;2023-09-12T08:50:16;95255.59;;;22.65;75.83
15405;BME280;7801;48.124;11.590;2023-09-12T08:52:43;95259.50;;;22.71;75.54
15405;BME280;7801;48.124;11.590;2023-09-12T08:55:11;95253.41;;;22.77;75.45
15405;BME280;7801;48.124;11.590;2023-09-12T08:57:39;95255.41;;;22.84;75.31
15405;BME280;7801;48.124;11.590;2023-09-12T09:00:06;95255.03;;;22.89;74.57
15405;BME280;7801;48.124;11.590;2023-09-12T09:02:34;95260.50;;;22.92;74.86
15405;BME280;7801;48.124;11.590;2023-09-12T09:05:01;95258.19;;;22.94;75.09
15405;BME280;7801;48.124;11.590;2023-09-12T09:07:28;95250.88;;;22.99;75.09
15405;BME280;7801;48.124;11.590;2023-09-12T09:09:54;95254.03;;;23.04;74.59
15405;BME280;7801;48.124;11.590;2023-09-12T09:12:21;95256.25;;;22.95;76.44
15405;BME280;7801;48.124;11.590;2023-09-12T09:14:46;95253.16;;;22.93;75.58
15405;BME280;7801;48.124;11.590;2023-09-12T09:17:11;95253.59;;;22.99;74.83
15405;BME280;7801;48.124;11.590;2023-09-12T09:19:44;95252.47;;;23.03;74.07
15405;BME280;7801;48.124;11.590;2023-09-12T09:22:10;95247.47;;;23.09;74.06
15405;BME280;7801;48.124;11.590;2023-09-12T09:24:35;95251.44;;;23.18;73.71
15405;BME280;7801;48.124;11.590;2023-09-12T09:27:01;95245.63;;;23.20;74.08
15405;BME280;7801;48.124;11.590;2023-09-12T09:29:27;95246.81;;;23.22;73.80
15405;BME280;7801;48.124;11.590;2023-09-12T09:31:58;95244.16;;;23.26;73.13
15405;BME280;7801;48.124;11.590;2023-09-12T09:34:24;95236.44;;;23.31;72.41
15405;BME280;7801;48.124;11.590;2023-09-12T09:36:51;95236.06;;;23.37;73.02
15405;BME280;7801;48.124;11.590;2023-09-12T09:39:17;95238.47;;;23.45;72.18
15405;BME280;7801;48.124;11.590;2023-09-12T09:41:49;95235.44;;;23.54;71.32
15405;BME280;7801;48.124;11.590;2023-09-12T09:44:15;95234.72;;;23.64;69.78
15405;BME280;7801;48.124;11.590;2023-09-12T09:46:45;95230.50;;;23.67;69.99
15405;BME280;7801;48.124;11.590;2023-09-12T09:49:11;95228.97;;;23.69;70.36
15405;BME280;7801;48.124;11.590;2023-09-12T09:51:43;95230.88;;;23.72;69.77
15405;BME280;7801;48.124;11.590;2023-09-12T09:54:12;95228.56;;;23.71;70.76
15405;BME280;7801;48.124;11.590;2023-09-12T09:59:14;95227.47;;;23.82;69.22
15405;BME280;7801;48.124;11.590;2023-09-12T10:01:40;95226.31;;;23.90;68.59
15405;BME280;7801;48.124;11.590;2023-09-12T10:04:06;95232.16;;;23.96;67.70
15405;BME280;7801;48.124;11.590;2023-09-12T10:06:35;95229.44;;;23.96;68.86
15405;BME280;7801;48.124;11.590;2023-09-12T10:09:09;95221.34;;;23.99;68.90
15405;BME280;7801;48.124;11.590;2023-09-12T10:11:37;95220.94;;;23.97;68.91
15405;BME280;7801;48.124;11.590;2023-09-12T10:14:04;95220.56;;;24.03;69.81
15405;BME280;7801;48.124;11.590;2023-09-12T10:16:31;95222.53;;;24.06;68.03
15405;BME280;7801;48.124;11.590;2023-09-12T10:19:20;95219.84;;;24.09;67.76
15405;BME280;7801;48.124;11.590;2023-09-12T10:21:54;95219.84;;;24.20;66.58
15405;BME280;7801;48.124;11.590;2023-09-12T10:24:27;95220.63;;;24.17;66.10
15405;BME280;7801;48.124;11.590;2023-09-12T10:26:53;95226.06;;;24.20;65.93
15405;BME280;7801;48.124;11.590;2023-09-12T10:29:20;95227.22;;;24.19;65.84
15405;BME280;7801;48.124;11.590;2023-09-12T10:31:46;95224.13;;;24.21;66.32
15405;BME280;7801;48.124;11.590;2023-09-12T10:34:13;95212.50;;;24.20;65.77
15405;BME280;7801;48.124;11.590;2023-09-12T10:36:40;95216.38;;;24.23;64.90
15405;BME280;7801;48.124;11.590;2023-09-12T10:39:07;95215.59;;;24.22;65.22
15405;BME280;7801;48.124;11.590;2023-09-12T10:41:37;95213.28;;;24.21;66.03
15405;BME280;7801;48.124;11.590;2023-09-12T10:44:09;95209.44;;;24.32;64.54
15405;BME280;7801;48.124;11.590;2023-09-12T10:46:37;95207.91;;;24.35;64.30
15405;BME280;7801;48.124;11.590;2023-09-12T10:49:09;95210.28;;;24.47;63.76
15405;BME280;7801;48.124;11.590;2023-09-12T10:51:40;95209.09;;;24.41;64.64
15405;BME280;7801;48.124;11.590;2023-09-12T10:54:06;95214.13;;;24.39;65.65
15405;BME280;7801;48.124;11.590;2023-09-12T10:56:33;95204.06;;;24.43;65.81
15405;BME280;7801;48.124;11.590;2023-09-12T11:01:38;95201.34;;;24.40;66.06
15405;BME280;7801;48.124;11.590;2023-09-12T11:06:45;95202.16;;;24.51;64.68
15405;BME280;7801;48.124;11.590;2023-09-12T11:09:18;95202.50;;;24.56;64.96
15405;BME280;7801;48.124;11.590;2023-09-12T11:11:48;95200.19;;;24.58;64.16
15405;BME280;7801;48.124;11.590;2023-09-12T11:14:15;95199.41;;;24.58;65.48
15405;BME280;7801;48.124;11.590;2023-09-12T11:16:41;95204.84;;;24.61;63.84
15405;BME280;7801;48.124;11.590;2023-09-12T11:19:16;95200.59;;;24.64;62.70
15405;BME280;7801;48.124;11.590;2023-09-12T11:21:43;95200.97;;;24.62;63.71
15405;BME280;7801;48.124;11.590;2023-09-12T11:24:09;95195.56;;;24.70;63.75
15405;BME280;7801;48.124;11.590;2023-09-12T11:26:35;95203.69;;;24.77;64.30
15405;BME280;7801;48.124;11.590;2023-09-12T11:29:11;95203.72;;;24.70;64.71
15405;BME280;7801;48.124;11.590;2023-09-12T11:31:37;95195.97;;;24.68;64.30
15405;BME280;7801;48.124;11.590;2023-09-12T11:34:08;95196.34;;;24.66;65.05
15405;BME280;7801;48.124;11.590;2023-09-12T11:36:41;95187.03;;;24.67;63.55
15405;BME280;7801;48.124;11.590;2023-09-12T11:39:22;95191.31;;;24.69;64.01
15405;BME280;7801;48.124;11.590;2023-09-12T11:41:49;95202.16;;;24.76;61.95
15405;BME280;7801;48.124;11.590;2023-09-12T11:44:14;95196.72;;;24.76;60.32
15405;BME280;7801;48.124;11.590;2023-09-12T11:46:41;95197.88;;;24.78;59.11
15405;BME280;7801;48.124;11.590;2023-09-12T11:49:06;95192.84;;;24.77;58.79
15405;BME280;7801;48.124;11.590;2023-09-12T11:51:32;95190.53;;;24.79;59.09
15405;BME280;7801;48.124;11.590;2023-09-12T11:53:57;95197.50;;;24.83;57.70
15405;BME280;7801;48.124;11.590;2023-09-12T11:56:25;95195.16;;;24.75;58.90
15405;BME280;7801;48.124;11.590;2023-09-12T11:58:56;95195.56;;;24.77;57.36
15405;BME280;7801;48.124;11.590;2023-09-12T12:01:21;95185.47;;;24.77;56.59
15405;BME280;7801;48.124;11.590;2023-09-12T12:03:47;95186.66;;;24.83;56.99
15405;BME280;7801;48.124;11.590;2023-09-12T12:06:17;95187.44;;;24.91;57.65
15405;BME280;7801;48.124;11.590;2023-09-12T12:08:43;95177.75;;;24.97;57.09
15405;BME280;7801;48.124;11.590;2023-09-12T12:11:08;95173.09;;;25.08;56.00
15405;BME280;7801;48.124;11.590;2023-09-12T12:13:34;95180.84;;;25.13;56.17
15405;BME280;7801;48.124;11.590;2023-09-12T12:15:59;95179.31;;;25.12;56.24
15405;BME280;7801;48.124;11.590;2023-09-12T12:18:25;95180.81;;;25.20;54.95
15405;BME280;7801;48.124;11.590;2023-09-12T12:20:51;95169.97;;;25.27;53.55
15405;BME280;7801;48.124;11.590;2023-09-12T12:23:16;95171.50;;;25.28;53.85
15405;BME280;7801;48.124;11.590;2023-09-12T12:25:42;95173.06;;;25.26;53.95
15405;BME280;7801;48.124;11.590;2023-09-12T12:28:08;95163.75;;;25.20;53.67
15405;BME280;7801;48.124;11.590;2023-09-12T12:30:35;95166.47;;;25.30;53.27
15405;BME280;7801;48.124;11.590;2023-09-12T12:33:05;95159.06;;;25.38;53.25
15405;BME280;7801;48.124;11.590;2023-09-12T12:35:31;95159.03;;;25.42;51.68
15405;BME280;7801;48.124;11.590;2023-09-12T12:37:56;95162.16;;;25.47;52.36
15405;BME280;7801;48.124;11.590;2023-09-12T12:40:22;95155.16;;;25.50;52.33
15405;BME280;7801;48.124;11.590;2023-09-12T12:42:47;95145.84;;;25.37;52.91
15405;BME280;7801;48.124;11.590;2023-09-12T12:47:39;95146.69;;;25.26;53.40
15405;BME280;7801;48.124;11.590;2023-09-12T12:50:14;95149.00;;;25.28;53.35
15405;BME280;7801;48.124;11.590;2023-09-12T12:52:41;95158.28;;;25.41;51.30
15405;BME280;7801;48.124;11.590;2023-09-12T12:55:09;95149.00;;;25.31;51.63
15405;BME280;7801;48.124;11.590;2023-09-12T12:57:38;95143.56;;;25.31;52.42
15405;BME280;7801;48.124;11.590;2023-09-12T13:00:15;95143.97;;;25.23;51.57
15405;BME280;7801;48.124;11.590;2023-09-12T13:02:42;95133.47;;;25.28;51.42
15405;BME280;7801;48.124;11.590;2023-09-12T13:05:28;95131.94;;;25.27;51.27
15405;BME280;7801;48.124;11.590;2023-09-12T13:07:54;95128.75;;;25.50;47.80
15405;BME280;7801;48.124;11.590;2023-09-12T13:10:20;95126.81;;;25.51;48.66